Dunglen, Ohio
Current Conditions -  °F | °C
As of 6:53 AM on Monday 26 Jan 2015 (Local Time) from KHLG Reporting Station
Light Snow Light Snow  
Wind Chill: 19°   Ceiling: 500
Heat Index: 27°   Visibility: 3mi
Dew Point: 24°   Wind: 7mph
Humidity: 89%   Direction: 360°N
Pressure: 29.67"   Gusts: NA
Location:  40.2215°N, 80.8189°W
Report Text: KHLG 261153Z 36006KT 3SM -SN BR OVC005 M03/M04 A2967 RMK AO2 SNB11 SLP062 P0000 60001 70019 T10281044 11011 21028 55003
Loading
Personal Weather Stations






























Interactive Weather Map New forecast layout! Learn more

10-Day Weather Forecast

Advertisements
Track Severe Weather on mobile